Loch Shuna — 3FDR7 — position and weather

sailwx.info

Track history (hours):
 
Tides and Currents Weather Stations Pressure Air Temp Water Temp Dewpoint Dewpoint Depression Visibility Wind Speed Wind Dir Waves Ship Positions

Loch Shuna

Last reported at 2018-May-23 21:18 UTC. Time now 2018-May-24 11:34 UTC.
Position N 22°45' E 070°04'.

Length 190 m; draft 8.3 m.

Type: Cargo ship. MMSI: 351474000.

Date/timePositionNaut miles runAvg speedWind from/ knotsBaromVisibWave heightAir tempDewpointWater temp
2018-May-23 21:18N 22°45' E 070°04'0 0.1
2018-May-23 21:00N 22°45' E 070°04'0 0.0
2018-May-23 20:30N 22°45' E 070°04'0 0.0
2018-May-23 20:00N 22°45' E 070°04'0 0.0
2018-May-23 19:30N 22°45' E 070°04'0 0.1
2018-May-23 18:12N 22°45' E 070°04'0 0.2
2018-May-23 18:00N 22°45' E 070°05'0 0.0
2018-May-23 01:12N 22°45' E 070°05'0 0.0
2018-May-23 00:42N 22°45' E 070°05'0 0.0
2018-May-22 22:36N 22°45' E 070°05'0 0.0
2018-May-22 22:24N 22°45' E 070°05'0 0.0
2018-May-22 21:54N 22°45' E 070°05'0 0.1
2018-May-22 21:06N 22°45' E 070°05'0 0.1
2018-May-22 20:48N 22°45' E 070°04'0 0.1
2018-May-22 20:30N 22°45' E 070°04'0 0.1
2018-May-22 20:00N 22°45' E 070°04'0 0.0
2018-May-22 19:30N 22°45' E 070°04'0 0.0
2018-May-22 19:00N 22°45' E 070°04'0 0.0
2018-May-22 04:36N 22°45' E 070°04'0 0.1
2018-May-22 04:30N 22°45' E 070°04'0 0.0
2018-May-21 22:24N 22°45' E 070°05'0 0.0
2018-May-21 17:54N 22°45' E 070°04'0 0.0
2018-May-21 03:24N 22°45' E 070°04'0 0.0
2018-May-20 21:42N 22°45' E 070°05'0 0.0
2018-May-20 21:06N 22°45' E 070°05'0 0.1
2018-May-20 21:00N 22°45' E 070°05'0 0.1
2018-May-20 19:18N 22°45' E 070°05'0 0.2
2018-May-20 18:54N 22°45' E 070°04'0 0.0
2018-May-20 03:30N 22°45' E 070°04'0 0.0
2018-May-20 02:54N 22°45' E 070°04'0 0.0
2018-May-20 02:24N 22°45' E 070°04'0 0.0
2018-May-20 02:00N 22°45' E 070°04'1 0.2
2018-May-19 20:16N 22°46' E 070°05'2 5.5
2018-May-19 19:59N 22°45' E 070°04'4 6.2
2018-May-19 19:20N 22°44' E 069°60'2 6.0
2018-May-19 19:00N 22°43' E 069°58'4 7.3
2018-May-19 18:29N 22°43' E 069°54'4 8.5
2018-May-19 17:59N 22°40' E 069°50'4 9.0
2018-May-19 17:30N 22°38' E 069°46'99 7.5
2018-May-19 04:15N 21°00' E 069°28'413.1
2018-May-19 03:57N 20°57' E 069°30'713.8
2018-May-19 03:28N 20°51' E 069°34'613.3
2018-May-19 03:00N 20°47' E 069°39'713.2
2018-May-19 02:30N 20°45' E 069°46'613.2
2018-May-19 02:00N 20°43' E 069°53'713.1
2018-May-19 01:29N 20°41' E 069°60'613.2
2018-May-19 01:00N 20°39' E 070°06'613.0
2018-May-19 00:30N 20°37' E 070°13'612.9
2018-May-19 00:00N 20°35' E 070°19'612.9
2018-May-18 23:30N 20°33' E 070°26'612.6
2018-May-18 23:00N 20°31' E 070°32'612.4
2018-May-18 22:30N 20°29' E 070°38'611.9
2018-May-18 21:58N 20°26' E 070°44'611.7
2018-May-18 21:29N 20°25' E 070°50'611.6
2018-May-18 21:00N 20°23' E 070°56'611.1
2018-May-18 20:30N 20°21' E 071°01'611.5
2018-May-18 19:59N 20°19' E 071°08'611.5
2018-May-18 19:29N 20°18' E 071°13'611.8
2018-May-18 18:59N 20°16' E 071°20'712.1
2018-May-18 18:26N 20°15' E 071°26'512.5
2018-May-18 18:00N 20°13' E 071°32'612.8
2018-May-18 17:30N 20°10' E 071°38'713.1
2018-May-18 17:00N 20°08' E 071°45'1013.6
2018-May-18 16:15N 20°08' E 071°55'414.4
2018-May-18 16:00N 20°09' E 071°59'815.0
2018-May-18 15:28N 20°13' E 072°07'715.0
2018-May-18 15:00N 20°16' E 072°13'714.5
2018-May-18 14:30N 20°19' E 072°20'713.4
2018-May-18 14:00N 20°24' E 072°25'713.9
2018-May-18 13:30N 20°31' E 072°27'612.7
2018-May-18 13:00N 20°37' E 072°29'611.8
2018-May-18 12:30N 20°42' E 072°30'510.9
2018-May-18 12:00N 20°48' E 072°31'510.2
2018-May-18 11:29N 20°53' E 072°32'5 9.7
2018-May-18 10:58N 20°58' E 072°34'3 7.3
2018-May-18 10:30N 21°01' E 072°35'1 1.3
2018-May-18 09:46N 21°02' E 072°36'0 0.0
2018-May-18 09:22N 21°02' E 072°36'0 0.0
2018-May-18 08:40N 21°02' E 072°36'0 0.1
2018-May-18 08:28N 21°02' E 072°36'0 0.0
2018-May-18 07:58N 21°02' E 072°36'0 0.1
2018-May-18 07:28N 21°02' E 072°36'0 0.3
2018-May-18 06:52N 21°01' E 072°36'0 0.3
2018-May-18 06:28N 21°01' E 072°36'0 0.1
2018-May-18 05:52N 21°01' E 072°36'0 0.0
2018-May-18 05:28N 21°01' E 072°36'0 0.0
2018-May-18 04:46N 21°01' E 072°36'0 0.0
2018-May-18 04:28N 21°01' E 072°36'0 0.0
2018-May-18 03:58N 21°01' E 072°36'0 0.0
2018-May-18 03:28N 21°01' E 072°36'0 0.0
2018-May-18 02:58N 21°01' E 072°36'0 0.0
2018-May-18 02:28N 21°01' E 072°36'0 0.0
2018-May-18 01:58N 21°01' E 072°36'0 0.3
2018-May-18 01:22N 21°01' E 072°36'0 0.2
2018-May-18 00:58N 21°01' E 072°36'0 0.1
2018-May-18 00:22N 21°02' E 072°36'0 0.1
2018-May-17 23:58N 21°02' E 072°36'0 0.1
2018-May-17 23:28N 21°02' E 072°36'0 0.0
2018-May-17 22:58N 21°02' E 072°36'0 0.0
2018-May-17 22:28N 21°02' E 072°36'0 0.0
2018-May-17 21:52N 21°02' E 072°36'0 0.0
2018-May-17 21:16N 21°02' E 072°36'0 0.0
2018-May-17 20:52N 21°02' E 072°36'0 0.0
2018-May-17 20:28N 21°02' E 072°36'0 0.1
2018-May-17 19:46N 21°01' E 072°36'0 0.2
2018-May-17 19:22N 21°01' E 072°36'0 0.2
2018-May-17 18:58N 21°01' E 072°36'0 0.2
2018-May-17 18:28N 21°01' E 072°36'0 0.1
2018-May-17 17:52N 21°01' E 072°36'0 0.0
2018-May-17 17:16N 21°01' E 072°36'0 0.0
2018-May-17 16:58N 21°01' E 072°36'0 0.0
2018-May-17 16:28N 21°01' E 072°36'0 0.0
2018-May-17 15:58N 21°01' E 072°36'0 0.0
2018-May-17 15:28N 21°01' E 072°36'0 0.0
2018-May-17 14:58N 21°01' E 072°36'0 0.1
2018-May-17 14:28N 21°01' E 072°36'0 0.1
2018-May-17 13:52N 21°01' E 072°36'0 0.3
2018-May-17 13:16N 21°01' E 072°36'0 0.2
2018-May-17 12:58N 21°01' E 072°36'0 0.2
2018-May-17 12:28N 21°01' E 072°36'0 0.1
2018-May-17 11:52N 21°02' E 072°36'0 0.0
2018-May-17 11:28N 21°02' E 072°36'0 0.0
2018-May-17 10:58N 21°02' E 072°36'0 0.0
2018-May-17 10:22N 21°02' E 072°36'0 0.0
2018-May-17 09:46N 21°02' E 072°36'0 0.0
2018-May-17 09:28N 21°02' E 072°36'0 0.0
2018-May-17 08:52N 21°02' E 072°36'0 0.0
2018-May-17 08:16N 21°02' E 072°36'0 0.0
2018-May-17 07:58N 21°02' E 072°36'0 0.1
2018-May-17 07:28N 21°01' E 072°36'0 0.2
2018-May-17 06:52N 21°01' E 072°36'0 0.3
2018-May-17 06:22N 21°01' E 072°36'0 0.3
2018-May-17 05:58N 21°01' E 072°36'0 0.1
2018-May-17 05:28N 21°01' E 072°36'0 0.0
2018-May-17 04:58N 21°01' E 072°36'0 0.0
2018-May-17 04:04N 21°01' E 072°36'0 0.4
2018-May-17 03:58N 21°01' E 072°36'0 0.1
2018-May-17 03:28N 21°01' E 072°36'0 0.0
2018-May-17 02:58N 21°01' E 072°36'0 0.1
2018-May-17 02:16N 21°01' E 072°36'0 0.1
2018-May-17 01:52N 21°01' E 072°36'0 0.0
2018-May-17 01:22N 21°01' E 072°36'0 0.0
2018-May-17 00:58N 21°01' E 072°36'0 0.1
2018-May-17 00:28N 21°01' E 072°36'0 0.3
2018-May-16 23:40N 21°01' E 072°36'0 0.1
2018-May-16 23:28N 21°02' E 072°36'0 0.1
2018-May-16 22:58N 21°01' E 072°36'0 0.0
2018-May-16 22:28N 21°01' E 072°36'0 0.0
2018-May-16 21:52N 21°02' E 072°36'0 0.0
2018-May-16 21:22N 21°02' E 072°36'0 0.0
2018-May-16 20:58N 21°02' E 072°36'0 0.0
2018-May-16 20:28N 21°02' E 072°36'0 0.0
2018-May-16 19:58N 21°02' E 072°36'0 0.1
2018-May-16 19:28N 21°02' E 072°36'0 0.1
2018-May-16 18:46N 21°02' E 072°36'0 0.2
2018-May-16 18:28N 21°01' E 072°36'0 0.4
2018-May-16 17:58N 21°01' E 072°36'0 0.1
2018-May-16 17:28N 21°01' E 072°36'0 0.0
2018-May-16 16:58N 21°01' E 072°36'0 0.0
2018-May-16 16:28N 21°01' E 072°36'0 0.0
2018-May-16 15:58N 21°01' E 072°36'0 0.0
2018-May-16 15:28N 21°01' E 072°36'0 0.0
2018-May-16 14:58N 21°01' E 072°36'0 0.0
2018-May-16 14:28N 21°01' E 072°36'0 0.1
2018-May-16 13:58N 21°01' E 072°36'0 0.0
2018-May-16 13:22N 21°01' E 072°36'0 0.0
2018-May-16 12:58N 21°01' E 072°36'0 0.3
2018-May-16 12:28N 21°01' E 072°36'0 0.2
2018-May-16 11:58N 21°01' E 072°36'0 0.1
2018-May-16 11:28N 21°02' E 072°36'0 0.0
2018-May-16 10:58N 21°02' E 072°36'0 0.0
2018-May-16 10:28N 21°01' E 072°36'0 0.0
2018-May-16 09:52N 21°02' E 072°36'0 0.0
2018-May-16 09:28N 21°02' E 072°36'0 0.0
2018-May-16 08:52N 21°02' E 072°36'0 0.0
2018-May-16 08:28N 21°02' E 072°36'0 0.0
2018-May-16 07:58N 21°02' E 072°36'0 0.0
2018-May-16 06:46N 21°01' E 072°36'0 0.2
2018-May-16 06:28N 21°01' E 072°36'0 0.1
2018-May-16 05:58N 21°01' E 072°36'0 0.3
2018-May-16 05:22N 21°01' E 072°36'0 0.1
2018-May-16 04:58N 21°01' E 072°36'0 0.0
2018-May-16 04:28N 21°01' E 072°36'0 0.1
2018-May-16 03:58N 21°01' E 072°36'0 0.1
2018-May-16 03:28N 21°01' E 072°36'0 0.0
2018-May-16 02:16N 21°01' E 072°36'0 0.0
2018-May-16 01:52N 21°01' E 072°36'0 0.0
2018-May-16 01:28N 21°01' E 072°36'0 0.1
2018-May-16 00:52N 21°01' E 072°36'0 0.0
2018-May-16 00:16N 21°01' E 072°36'0 0.2
2018-May-15 23:58N 21°01' E 072°36'0 0.2
2018-May-15 23:28N 21°01' E 072°36'0 0.3
2018-May-15 22:58N 21°01' E 072°36'0 0.1
2018-May-15 22:28N 21°01' E 072°36'0 0.0
2018-May-15 21:58N 21°01' E 072°36'0 0.0
2018-May-15 21:22N 21°01' E 072°36'0 0.0
2018-May-15 20:40N 21°01' E 072°36'0 0.0
2018-May-15 20:28N 21°01' E 072°36'0 0.0
2018-May-15 19:58N 21°01' E 072°36'0 0.0
2018-May-15 19:10N 21°01' E 072°36'0 0.1
2018-May-15 18:58N 21°01' E 072°36'0 0.1
2018-May-15 18:22N 21°01' E 072°36'0 0.2
2018-May-15 17:58N 21°01' E 072°36'0 0.2
2018-May-15 17:28N 21°01' E 072°36'0 0.2
2018-May-15 16:58N 21°01' E 072°36'0 0.0
2018-May-15 16:28N 21°01' E 072°36'0 0.0
2018-May-15 15:52N 21°01' E 072°36'0 0.0
2018-May-15 15:22N 21°01' E 072°36'0 0.0
2018-May-15 14:58N 21°01' E 072°36'0 0.0
2018-May-15 14:28N 21°01' E 072°36'0 0.0
2018-May-15 13:46N 21°01' E 072°36'0 0.1
2018-May-15 13:22N 21°01' E 072°36'0 0.0
2018-May-15 12:58N 21°01' E 072°36'0 0.1
2018-May-15 12:22N 21°01' E 072°36'0 0.3
2018-May-15 11:58N 21°01' E 072°36'0 0.2
2018-May-15 11:28N 21°01' E 072°36'0 0.2
2018-May-15 10:58N 21°02' E 072°36'0 0.1
2018-May-15 10:22N 21°02' E 072°36'0 0.0
2018-May-15 09:58N 21°02' E 072°36'0 0.0
2018-May-15 08:52N 21°01' E 072°36'0 0.0
2018-May-15 08:28N 21°01' E 072°36'0 0.0
2018-May-15 07:58N 21°01' E 072°36'0 0.0
2018-May-15 07:28N 21°01' E 072°36'0 0.0
2018-May-15 06:58N 21°01' E 072°36'0 0.0
2018-May-15 06:22N 21°02' E 072°36'0 0.1
2018-May-15 05:58N 21°02' E 072°36'0 0.2
2018-May-15 05:16N 21°01' E 072°36'0 0.3
2018-May-15 04:46N 21°01' E 072°36'0 0.1
2018-May-15 04:28N 21°01' E 072°36'0 0.0
2018-May-15 03:58N 21°01' E 072°36'0 0.0
2018-May-15 03:22N 21°01' E 072°36'0 0.0
2018-May-15 02:58N 21°01' E 072°36'0 0.0
2018-May-15 02:28N 21°01' E 072°36'0 0.0
2018-May-15 01:52N 21°01' E 072°36'0 0.0
2018-May-15 01:28N 21°01' E 072°36'0 0.1
2018-May-15 00:58N 21°01' E 072°36'0 0.0
2018-May-15 00:22N 21°01' E 072°36'0 0.0
2018-May-14 23:52N 21°01' E 072°36'0 0.2
2018-May-14 23:28N 21°01' E 072°36'0 0.2
2018-May-14 22:58N 21°01' E 072°36'0 0.2
2018-May-14 22:10N 21°01' E 072°36'0 0.1
2018-May-14 21:58N 21°01' E 072°36'0 0.0
2018-May-14 21:28N 21°01' E 072°36'0 0.0
2018-May-14 20:40N 21°01' E 072°36'0 0.0
2018-May-14 20:28N 21°01' E 072°36'0 0.0
2018-May-14 19:58N 21°01' E 072°36'0 0.0
2018-May-14 19:16N 21°01' E 072°36'0 0.1
2018-May-14 18:58N 21°02' E 072°36'0 0.0
2018-May-14 18:28N 21°02' E 072°36'0 0.1
2018-May-14 17:58N 21°02' E 072°36'0 0.2
2018-May-14 17:22N 21°01' E 072°36'0 0.2
2018-May-14 16:58N 21°01' E 072°36'0 0.3
2018-May-14 16:28N 21°01' E 072°36'0 0.1
2018-May-14 15:58N 21°01' E 072°36'0 0.0
2018-May-14 15:04N 21°01' E 072°36'0 0.0
2018-May-14 14:46N 21°01' E 072°36'0 0.0
2018-May-14 14:28N 21°01' E 072°36'0 0.0
2018-May-14 13:52N 21°01' E 072°36'0 0.0
2018-May-14 13:16N 21°01' E 072°36'0 0.0
2018-May-14 12:58N 21°01' E 072°36'0 0.0
2018-May-14 12:28N 21°01' E 072°36'0 0.0
2018-May-14 11:52N 21°01' E 072°36'0 0.3
2018-May-14 11:28N 21°01' E 072°36'0 0.2
2018-May-14 10:52N 21°01' E 072°36'0 0.3
2018-May-14 10:28N 21°01' E 072°36'0 0.1
2018-May-14 09:58N 21°01' E 072°36'0 0.0
2018-May-14 09:28N 21°01' E 072°36'0 0.0
2018-May-14 08:58N 21°01' E 072°36'0 0.0
2018-May-14 08:28N 21°01' E 072°36'0 0.0
2018-May-14 07:52N 21°01' E 072°36'0 0.0
2018-May-14 07:28N 21°01' E 072°36'0 0.0
2018-May-14 06:58N 21°01' E 072°36'0 0.0
2018-May-14 06:28N 21°01' E 072°36'0 0.0
2018-May-14 05:52N 21°01' E 072°36'0 0.1
2018-May-14 05:28N 21°01' E 072°36'0 0.1
2018-May-14 04:58N 21°01' E 072°36'0 0.3
2018-May-14 04:28N 21°01' E 072°36'0 0.2
2018-May-14 03:52N 21°01' E 072°36'0 0.0
2018-May-14 03:22N 21°01' E 072°36'0 0.0
2018-May-14 02:58N 21°01' E 072°36'0 0.0
2018-May-14 02:28N 21°01' E 072°36'0 0.0
2018-May-14 01:52N 21°01' E 072°36'0 0.0
2018-May-14 01:22N 21°01' E 072°36'0 0.0
2018-May-14 00:58N 21°01' E 072°36'0 0.0
2018-May-14 00:22N 21°01' E 072°36'0 0.0
2018-May-13 23:46N 21°01' E 072°36'0 0.1
2018-May-13 23:28N 21°01' E 072°36'0 0.2
2018-May-13 22:52N 21°01' E 072°36'0 0.3
2018-May-13 22:28N 21°01' E 072°36'0 0.1
2018-May-13 21:58N 21°01' E 072°36'0 0.3
2018-May-13 21:28N 21°02' E 072°36'  
Track history (hours):
 
Tides and Currents Weather Stations Pressure Air Temp Water Temp Dewpoint Dewpoint Depression Visibility Wind Speed Wind Dir Waves Ship Positions

Loch Shuna

Last reported at 2018-May-23 21:18 UTC. Time now 2018-May-24 11:34 UTC.
Position N 22°45' E 070°04'.

Length 190 m; draft 8.3 m.

Type: Cargo ship. MMSI: 351474000.

Date/timePositionNaut miles runAvg speedWind from/ knotsBaromVisibWave heightAir tempDewpointWater temp
2018-May-23 21:18N 22°45' E 070°04'0 0.1
2018-May-23 21:00N 22°45' E 070°04'0 0.0
2018-May-23 20:30N 22°45' E 070°04'0 0.0
2018-May-23 20:00N 22°45' E 070°04'0 0.0
2018-May-23 19:30N 22°45' E 070°04'0 0.1
2018-May-23 18:12N 22°45' E 070°04'0 0.2
2018-May-23 18:00N 22°45' E 070°05'0 0.0
2018-May-23 01:12N 22°45' E 070°05'0 0.0
2018-May-23 00:42N 22°45' E 070°05'0 0.0
2018-May-22 22:36N 22°45' E 070°05'0 0.0
2018-May-22 22:24N 22°45' E 070°05'0 0.0
2018-May-22 21:54N 22°45' E 070°05'0 0.1
2018-May-22 21:06N 22°45' E 070°05'0 0.1
2018-May-22 20:48N 22°45' E 070°04'0 0.1
2018-May-22 20:30N 22°45' E 070°04'0 0.1
2018-May-22 20:00N 22°45' E 070°04'0 0.0
2018-May-22 19:30N 22°45' E 070°04'0 0.0
2018-May-22 19:00N 22°45' E 070°04'0 0.0
2018-May-22 04:36N 22°45' E 070°04'0 0.1
2018-May-22 04:30N 22°45' E 070°04'0 0.0
2018-May-21 22:24N 22°45' E 070°05'0 0.0
2018-May-21 17:54N 22°45' E 070°04'0 0.0
2018-May-21 03:24N 22°45' E 070°04'0 0.0
2018-May-20 21:42N 22°45' E 070°05'0 0.0
2018-May-20 21:06N 22°45' E 070°05'0 0.1
2018-May-20 21:00N 22°45' E 070°05'0 0.1
2018-May-20 19:18N 22°45' E 070°05'0 0.2
2018-May-20 18:54N 22°45' E 070°04'0 0.0
2018-May-20 03:30N 22°45' E 070°04'0 0.0
2018-May-20 02:54N 22°45' E 070°04'0 0.0
2018-May-20 02:24N 22°45' E 070°04'0 0.0
2018-May-20 02:00N 22°45' E 070°04'1 0.2
2018-May-19 20:16N 22°46' E 070°05'2 5.5
2018-May-19 19:59N 22°45' E 070°04'4 6.2
2018-May-19 19:20N 22°44' E 069°60'2 6.0
2018-May-19 19:00N 22°43' E 069°58'4 7.3
2018-May-19 18:29N 22°43' E 069°54'4 8.5
2018-May-19 17:59N 22°40' E 069°50'4 9.0
2018-May-19 17:30N 22°38' E 069°46'99 7.5
2018-May-19 04:15N 21°00' E 069°28'413.1
2018-May-19 03:57N 20°57' E 069°30'713.8
2018-May-19 03:28N 20°51' E 069°34'613.3
2018-May-19 03:00N 20°47' E 069°39'713.2
2018-May-19 02:30N 20°45' E 069°46'613.2
2018-May-19 02:00N 20°43' E 069°53'713.1
2018-May-19 01:29N 20°41' E 069°60'613.2
2018-May-19 01:00N 20°39' E 070°06'613.0
2018-May-19 00:30N 20°37' E 070°13'612.9
2018-May-19 00:00N 20°35' E 070°19'612.9
2018-May-18 23:30N 20°33' E 070°26'612.6
2018-May-18 23:00N 20°31' E 070°32'612.4
2018-May-18 22:30N 20°29' E 070°38'611.9
2018-May-18 21:58N 20°26' E 070°44'611.7
2018-May-18 21:29N 20°25' E 070°50'611.6
2018-May-18 21:00N 20°23' E 070°56'611.1
2018-May-18 20:30N 20°21' E 071°01'611.5
2018-May-18 19:59N 20°19' E 071°08'611.5
2018-May-18 19:29N 20°18' E 071°13'611.8
2018-May-18 18:59N 20°16' E 071°20'712.1
2018-May-18 18:26N 20°15' E 071°26'512.5
2018-May-18 18:00N 20°13' E 071°32'612.8
2018-May-18 17:30N 20°10' E 071°38'713.1
2018-May-18 17:00N 20°08' E 071°45'1013.6
2018-May-18 16:15N 20°08' E 071°55'414.4
2018-May-18 16:00N 20°09' E 071°59'815.0
2018-May-18 15:28N 20°13' E 072°07'715.0
2018-May-18 15:00N 20°16' E 072°13'714.5
2018-May-18 14:30N 20°19' E 072°20'713.4
2018-May-18 14:00N 20°24' E 072°25'713.9
2018-May-18 13:30N 20°31' E 072°27'612.7
2018-May-18 13:00N 20°37' E 072°29'611.8
2018-May-18 12:30N 20°42' E 072°30'510.9
2018-May-18 12:00N 20°48' E 072°31'510.2
2018-May-18 11:29N 20°53' E 072°32'5 9.7
2018-May-18 10:58N 20°58' E 072°34'3 7.3
2018-May-18 10:30N 21°01' E 072°35'1 1.3
2018-May-18 09:46N 21°02' E 072°36'0 0.0
2018-May-18 09:22N 21°02' E 072°36'0 0.0
2018-May-18 08:40N 21°02' E 072°36'0 0.1
2018-May-18 08:28N 21°02' E 072°36'0 0.0
2018-May-18 07:58N 21°02' E 072°36'0 0.1
2018-May-18 07:28N 21°02' E 072°36'0 0.3
2018-May-18 06:52N 21°01' E 072°36'0 0.3
2018-May-18 06:28N 21°01' E 072°36'0 0.1
2018-May-18 05:52N 21°01' E 072°36'0 0.0
2018-May-18 05:28N 21°01' E 072°36'0 0.0
2018-May-18 04:46N 21°01' E 072°36'0 0.0
2018-May-18 04:28N 21°01' E 072°36'0 0.0
2018-May-18 03:58N 21°01' E 072°36'0 0.0
2018-May-18 03:28N 21°01' E 072°36'0 0.0
2018-May-18 02:58N 21°01' E 072°36'0 0.0
2018-May-18 02:28N 21°01' E 072°36'0 0.0
2018-May-18 01:58N 21°01' E 072°36'0 0.3
2018-May-18 01:22N 21°01' E 072°36'0 0.2
2018-May-18 00:58N 21°01' E 072°36'0 0.1
2018-May-18 00:22N 21°02' E 072°36'0 0.1
2018-May-17 23:58N 21°02' E 072°36'0 0.1
2018-May-17 23:28N 21°02' E 072°36'0 0.0
2018-May-17 22:58N 21°02' E 072°36'0 0.0
2018-May-17 22:28N 21°02' E 072°36'0 0.0
2018-May-17 21:52N 21°02' E 072°36'0 0.0
2018-May-17 21:16N 21°02' E 072°36'0 0.0
2018-May-17 20:52N 21°02' E 072°36'0 0.0
2018-May-17 20:28N 21°02' E 072°36'0 0.1
2018-May-17 19:46N 21°01' E 072°36'0 0.2
2018-May-17 19:22N 21°01' E 072°36'0 0.2
2018-May-17 18:58N 21°01' E 072°36'0 0.2
2018-May-17 18:28N 21°01' E 072°36'0 0.1
2018-May-17 17:52N 21°01' E 072°36'0 0.0
2018-May-17 17:16N 21°01' E 072°36'0 0.0
2018-May-17 16:58N 21°01' E 072°36'0 0.0
2018-May-17 16:28N 21°01' E 072°36'0 0.0
2018-May-17 15:58N 21°01' E 072°36'0 0.0
2018-May-17 15:28N 21°01' E 072°36'0 0.0
2018-May-17 14:58N 21°01' E 072°36'0 0.1
2018-May-17 14:28N 21°01' E 072°36'0 0.1
2018-May-17 13:52N 21°01' E 072°36'0 0.3
2018-May-17 13:16N 21°01' E 072°36'0 0.2
2018-May-17 12:58N 21°01' E 072°36'0 0.2
2018-May-17 12:28N 21°01' E 072°36'0 0.1
2018-May-17 11:52N 21°02' E 072°36'0 0.0
2018-May-17 11:28N 21°02' E 072°36'0 0.0
2018-May-17 10:58N 21°02' E 072°36'0 0.0
2018-May-17 10:22N 21°02' E 072°36'0 0.0
2018-May-17 09:46N 21°02' E 072°36'0 0.0
2018-May-17 09:28N 21°02' E 072°36'0 0.0
2018-May-17 08:52N 21°02' E 072°36'0 0.0
2018-May-17 08:16N 21°02' E 072°36'0 0.0
2018-May-17 07:58N 21°02' E 072°36'0 0.1
2018-May-17 07:28N 21°01' E 072°36'0 0.2
2018-May-17 06:52N 21°01' E 072°36'0 0.3
2018-May-17 06:22N 21°01' E 072°36'0 0.3
2018-May-17 05:58N 21°01' E 072°36'0 0.1
2018-May-17 05:28N 21°01' E 072°36'0 0.0
2018-May-17 04:58N 21°01' E 072°36'0 0.0
2018-May-17 04:04N 21°01' E 072°36'0 0.4
2018-May-17 03:58N 21°01' E 072°36'0 0.1
2018-May-17 03:28N 21°01' E 072°36'0 0.0
2018-May-17 02:58N 21°01' E 072°36'0 0.1
2018-May-17 02:16N 21°01' E 072°36'0 0.1
2018-May-17 01:52N 21°01' E 072°36'0 0.0
2018-May-17 01:22N 21°01' E 072°36'0 0.0
2018-May-17 00:58N 21°01' E 072°36'0 0.1
2018-May-17 00:28N 21°01' E 072°36'0 0.3
2018-May-16 23:40N 21°01' E 072°36'0 0.1
2018-May-16 23:28N 21°02' E 072°36'0 0.1
2018-May-16 22:58N 21°01' E 072°36'0 0.0
2018-May-16 22:28N 21°01' E 072°36'0 0.0
2018-May-16 21:52N 21°02' E 072°36'0 0.0
2018-May-16 21:22N 21°02' E 072°36'0 0.0
2018-May-16 20:58N 21°02' E 072°36'0 0.0
2018-May-16 20:28N 21°02' E 072°36'0 0.0
2018-May-16 19:58N 21°02' E 072°36'0 0.1
2018-May-16 19:28N 21°02' E 072°36'0 0.1
2018-May-16 18:46N 21°02' E 072°36'0 0.2
2018-May-16 18:28N 21°01' E 072°36'0 0.4
2018-May-16 17:58N 21°01' E 072°36'0 0.1
2018-May-16 17:28N 21°01' E 072°36'0 0.0
2018-May-16 16:58N 21°01' E 072°36'0 0.0
2018-May-16 16:28N 21°01' E 072°36'0 0.0
2018-May-16 15:58N 21°01' E 072°36'0 0.0
2018-May-16 15:28N 21°01' E 072°36'0 0.0
2018-May-16 14:58N 21°01' E 072°36'0 0.0
2018-May-16 14:28N 21°01' E 072°36'0 0.1
2018-May-16 13:58N 21°01' E 072°36'0 0.0
2018-May-16 13:22N 21°01' E 072°36'0 0.0
2018-May-16 12:58N 21°01' E 072°36'0 0.3
2018-May-16 12:28N 21°01' E 072°36'0 0.2
2018-May-16 11:58N 21°01' E 072°36'0 0.1
2018-May-16 11:28N 21°02' E 072°36'0 0.0
2018-May-16 10:58N 21°02' E 072°36'0 0.0
2018-May-16 10:28N 21°01' E 072°36'0 0.0
2018-May-16 09:52N 21°02' E 072°36'0 0.0
2018-May-16 09:28N 21°02' E 072°36'0 0.0
2018-May-16 08:52N 21°02' E 072°36'0 0.0
2018-May-16 08:28N 21°02' E 072°36'0 0.0
2018-May-16 07:58N 21°02' E 072°36'0 0.0
2018-May-16 06:46N 21°01' E 072°36'0 0.2
2018-May-16 06:28N 21°01' E 072°36'0 0.1
2018-May-16 05:58N 21°01' E 072°36'0 0.3
2018-May-16 05:22N 21°01' E 072°36'0 0.1
2018-May-16 04:58N 21°01' E 072°36'0 0.0
2018-May-16 04:28N 21°01' E 072°36'0 0.1
2018-May-16 03:58N 21°01' E 072°36'0 0.1
2018-May-16 03:28N 21°01' E 072°36'0 0.0
2018-May-16 02:16N 21°01' E 072°36'0 0.0
2018-May-16 01:52N 21°01' E 072°36'0 0.0
2018-May-16 01:28N 21°01' E 072°36'0 0.1
2018-May-16 00:52N 21°01' E 072°36'0 0.0
2018-May-16 00:16N 21°01' E 072°36'0 0.2
2018-May-15 23:58N 21°01' E 072°36'0 0.2
2018-May-15 23:28N 21°01' E 072°36'0 0.3
2018-May-15 22:58N 21°01' E 072°36'0 0.1
2018-May-15 22:28N 21°01' E 072°36'0 0.0
2018-May-15 21:58N 21°01' E 072°36'0 0.0
2018-May-15 21:22N 21°01' E 072°36'0 0.0
2018-May-15 20:40N 21°01' E 072°36'0 0.0
2018-May-15 20:28N 21°01' E 072°36'0 0.0
2018-May-15 19:58N 21°01' E 072°36'0 0.0
2018-May-15 19:10N 21°01' E 072°36'0 0.1
2018-May-15 18:58N 21°01' E 072°36'0 0.1
2018-May-15 18:22N 21°01' E 072°36'0 0.2
2018-May-15 17:58N 21°01' E 072°36'0 0.2
2018-May-15 17:28N 21°01' E 072°36'0 0.2
2018-May-15 16:58N 21°01' E 072°36'0 0.0
2018-May-15 16:28N 21°01' E 072°36'0 0.0
2018-May-15 15:52N 21°01' E 072°36'0 0.0
2018-May-15 15:22N 21°01' E 072°36'0 0.0
2018-May-15 14:58N 21°01' E 072°36'0 0.0
2018-May-15 14:28N 21°01' E 072°36'0 0.0
2018-May-15 13:46N 21°01' E 072°36'0 0.1
2018-May-15 13:22N 21°01' E 072°36'0 0.0
2018-May-15 12:58N 21°01' E 072°36'0 0.1
2018-May-15 12:22N 21°01' E 072°36'0 0.3
2018-May-15 11:58N 21°01' E 072°36'0 0.2
2018-May-15 11:28N 21°01' E 072°36'0 0.2
2018-May-15 10:58N 21°02' E 072°36'0 0.1
2018-May-15 10:22N 21°02' E 072°36'0 0.0
2018-May-15 09:58N 21°02' E 072°36'0 0.0
2018-May-15 08:52N 21°01' E 072°36'0 0.0
2018-May-15 08:28N 21°01' E 072°36'0 0.0
2018-May-15 07:58N 21°01' E 072°36'0 0.0
2018-May-15 07:28N 21°01' E 072°36'0 0.0
2018-May-15 06:58N 21°01' E 072°36'0 0.0
2018-May-15 06:22N 21°02' E 072°36'0 0.1
2018-May-15 05:58N 21°02' E 072°36'0 0.2
2018-May-15 05:16N 21°01' E 072°36'0 0.3
2018-May-15 04:46N 21°01' E 072°36'0 0.1
2018-May-15 04:28N 21°01' E 072°36'0 0.0
2018-May-15 03:58N 21°01' E 072°36'0 0.0
2018-May-15 03:22N 21°01' E 072°36'0 0.0
2018-May-15 02:58N 21°01' E 072°36'0 0.0
2018-May-15 02:28N 21°01' E 072°36'0 0.0
2018-May-15 01:52N 21°01' E 072°36'0 0.0
2018-May-15 01:28N 21°01' E 072°36'0 0.1
2018-May-15 00:58N 21°01' E 072°36'0 0.0
2018-May-15 00:22N 21°01' E 072°36'0 0.0
2018-May-14 23:52N 21°01' E 072°36'0 0.2
2018-May-14 23:28N 21°01' E 072°36'0 0.2
2018-May-14 22:58N 21°01' E 072°36'0 0.2
2018-May-14 22:10N 21°01' E 072°36'0 0.1
2018-May-14 21:58N 21°01' E 072°36'0 0.0
2018-May-14 21:28N 21°01' E 072°36'0 0.0
2018-May-14 20:40N 21°01' E 072°36'0 0.0
2018-May-14 20:28N 21°01' E 072°36'0 0.0
2018-May-14 19:58N 21°01' E 072°36'0 0.0
2018-May-14 19:16N 21°01' E 072°36'0 0.1
2018-May-14 18:58N 21°02' E 072°36'0 0.0
2018-May-14 18:28N 21°02' E 072°36'0 0.1
2018-May-14 17:58N 21°02' E 072°36'0 0.2
2018-May-14 17:22N 21°01' E 072°36'0 0.2
2018-May-14 16:58N 21°01' E 072°36'0 0.3
2018-May-14 16:28N 21°01' E 072°36'0 0.1
2018-May-14 15:58N 21°01' E 072°36'0 0.0
2018-May-14 15:04N 21°01' E 072°36'0 0.0
2018-May-14 14:46N 21°01' E 072°36'0 0.0
2018-May-14 14:28N 21°01' E 072°36'0 0.0
2018-May-14 13:52N 21°01' E 072°36'0 0.0
2018-May-14 13:16N 21°01' E 072°36'0 0.0
2018-May-14 12:58N 21°01' E 072°36'0 0.0
2018-May-14 12:28N 21°01' E 072°36'0 0.0
2018-May-14 11:52N 21°01' E 072°36'0 0.3
2018-May-14 11:28N 21°01' E 072°36'0 0.2
2018-May-14 10:52N 21°01' E 072°36'0 0.3
2018-May-14 10:28N 21°01' E 072°36'0 0.1
2018-May-14 09:58N 21°01' E 072°36'0 0.0
2018-May-14 09:28N 21°01' E 072°36'0 0.0
2018-May-14 08:58N 21°01' E 072°36'0 0.0
2018-May-14 08:28N 21°01' E 072°36'0 0.0
2018-May-14 07:52N 21°01' E 072°36'0 0.0
2018-May-14 07:28N 21°01' E 072°36'0 0.0
2018-May-14 06:58N 21°01' E 072°36'0 0.0
2018-May-14 06:28N 21°01' E 072°36'0 0.0
2018-May-14 05:52N 21°01' E 072°36'0 0.1
2018-May-14 05:28N 21°01' E 072°36'0 0.1
2018-May-14 04:58N 21°01' E 072°36'0 0.3
2018-May-14 04:28N 21°01' E 072°36'0 0.2
2018-May-14 03:52N 21°01' E 072°36'0 0.0
2018-May-14 03:22N 21°01' E 072°36'0 0.0
2018-May-14 02:58N 21°01' E 072°36'0 0.0
2018-May-14 02:28N 21°01' E 072°36'0 0.0
2018-May-14 01:52N 21°01' E 072°36'0 0.0
2018-May-14 01:22N 21°01' E 072°36'0 0.0
2018-May-14 00:58N 21°01' E 072°36'0 0.0
2018-May-14 00:22N 21°01' E 072°36'0 0.0
2018-May-13 23:46N 21°01' E 072°36'0 0.1
2018-May-13 23:28N 21°01' E 072°36'0 0.2
2018-May-13 22:52N 21°01' E 072°36'0 0.3
2018-May-13 22:28N 21°01' E 072°36'0 0.1
2018-May-13 21:58N 21°01' E 072°36'0 0.3
2018-May-13 21:28N 21°02' E 072°36'  

Dump ship's entire track history